Time,TemperatureF,DewpointF,PressureIn,WindDirection,WindDirectionDegrees,WindSpeedMPH,WindSpeedGustMPH,Humidity,HourlyPrecipIn,Conditions,Clouds,dailyrainin,SoftwareType,DateUTC
2013-02-16 00:03:00,34.6,7.1,30.25,NE,45,0.4,0.4,31,0.00,,---,0.00,VWS V14.01,2013-02-16 07:03:00,
2013-02-16 00:08:00,34.2,6.7,30.25,NNE,22,0.0,0.0,31,0.00,,---,0.00,VWS V14.01,2013-02-16 07:08:00,
2013-02-16 00:13:00,33.7,7.0,30.25,NNE,22,1.8,1.8,32,0.00,,---,0.00,VWS V14.01,2013-02-16 07:13:00,
2013-02-16 00:18:00,33.3,6.6,30.26,NNE,22,1.6,1.6,32,0.00,,---,0.00,VWS V14.01,2013-02-16 07:18:00,
2013-02-16 00:23:00,33.3,6.6,30.26,NNE,22,0.4,0.4,32,0.00,,---,0.00,VWS V14.01,2013-02-16 07:23:00,
2013-02-16 00:28:00,33.3,6.6,30.26,NE,45,2.0,2.0,32,0.00,,---,0.00,VWS V14.01,2013-02-16 07:28:00,
2013-02-16 00:32:00,33.7,7.0,30.26,NE,45,0.7,0.7,32,0.00,,---,0.00,VWS V14.01,2013-02-16 07:32:00,
2013-02-16 00:37:00,33.8,7.8,30.26,NNE,22,1.8,1.8,33,0.00,,---,0.00,VWS V14.01,2013-02-16 07:37:00,
2013-02-16 00:42:00,33.8,7.1,30.26,NE,45,1.1,1.1,32,0.00,,---,0.00,VWS V14.01,2013-02-16 07:42:00,
2013-02-16 00:47:00,33.7,7.0,30.26,NNE,22,1.1,1.1,32,0.00,,---,0.00,VWS V14.01,2013-02-16 07:47:00,
2013-02-16 00:52:00,33.5,6.8,30.26,NNE,22,1.6,1.6,32,0.00,,---,0.00,VWS V14.01,2013-02-16 07:52:00,
2013-02-16 00:57:00,33.3,7.3,30.26,North,0,1.1,1.1,33,0.00,,---,0.00,VWS V14.01,2013-02-16 07:57:00,
2013-02-16 01:02:00,33.3,7.3,30.27,NE,45,0.7,0.7,33,0.00,,---,0.00,VWS V14.01,2013-02-16 08:02:00,
2013-02-16 01:07:00,32.9,7.0,30.27,NE,45,0.4,0.4,33,0.00,,---,0.00,VWS V14.01,2013-02-16 08:07:00,
2013-02-16 01:12:00,32.8,6.9,30.27,NE,45,0.2,0.2,33,0.00,,---,0.00,VWS V14.01,2013-02-16 08:12:00,
2013-02-16 01:17:00,32.6,6.7,30.27,NNE,22,1.1,1.1,33,0.00,,---,0.00,VWS V14.01,2013-02-16 08:17:00,
2013-02-16 01:22:00,32.6,6.7,30.27,NE,45,0.9,0.9,33,0.00,,---,0.00,VWS V14.01,2013-02-16 08:22:00,
2013-02-16 01:27:00,32.4,6.5,30.27,NNE,22,0.7,0.7,33,0.00,,---,0.00,VWS V14.01,2013-02-16 08:27:00,
2013-02-16 01:32:00,32.0,7.5,30.27,NNE,22,0.9,0.9,35,0.00,,---,0.00,VWS V14.01,2013-02-16 08:32:00,
2013-02-16 01:37:00,31.7,7.2,30.27,NE,45,0.7,0.7,35,0.00,,---,0.00,VWS V14.01,2013-02-16 08:37:00,
2013-02-16 01:42:00,31.5,7.0,30.27,NNE,22,0.4,0.4,35,0.00,,---,0.00,VWS V14.01,2013-02-16 08:42:00,
2013-02-16 01:47:00,31.5,7.0,30.27,NNE,22,2.0,2.0,35,0.00,,---,0.00,VWS V14.01,2013-02-16 08:47:00,
2013-02-16 01:52:00,31.7,7.2,30.27,NNE,22,3.8,3.8,35,0.00,,---,0.00,VWS V14.01,2013-02-16 08:52:00,
2013-02-16 01:57:00,31.7,7.2,30.27,NNE,22,1.6,1.6,35,0.00,,---,0.00,VWS V14.01,2013-02-16 08:57:00,
2013-02-16 02:02:00,31.5,7.0,30.27,NNE,22,1.6,1.6,35,0.00,,---,0.00,VWS V14.01,2013-02-16 09:02:00,
2013-02-16 02:07:00,31.3,7.5,30.27,NNE,22,4.3,4.3,36,0.00,,---,0.00,VWS V14.01,2013-02-16 09:07:00,
2013-02-16 02:12:00,31.7,7.8,30.27,NE,45,2.5,2.5,36,0.00,,---,0.00,VWS V14.01,2013-02-16 09:12:00,
2013-02-16 02:17:00,31.7,7.8,30.27,NNE,22,1.3,1.3,36,0.00,,---,0.00,VWS V14.01,2013-02-16 09:17:00,
2013-02-16 02:22:00,31.3,7.5,30.27,NNE,22,2.2,2.2,36,0.00,,---,0.00,VWS V14.01,2013-02-16 09:22:00,
2013-02-16 02:27:00,31.1,7.3,30.27,North,0,0.0,0.0,36,0.00,,---,0.01,VWS V14.01,2013-02-16 09:27:00,
2013-02-16 02:32:00,31.0,7.8,30.27,NE,45,0.2,0.2,37,0.00,,---,0.00,VWS V14.01,2013-02-16 09:32:00,
2013-02-16 02:37:00,31.1,7.9,30.27,ENE,68,0.4,0.4,37,0.00,,---,0.00,VWS V14.01,2013-02-16 09:37:00,
2013-02-16 02:42:00,31.1,7.9,30.27,NE,45,0.4,0.4,37,0.00,,---,0.00,VWS V14.01,2013-02-16 09:42:00,
2013-02-16 02:47:00,31.0,7.2,30.27,North,0,1.1,1.1,36,0.00,,---,0.00,VWS V14.01,2013-02-16 09:47:00,
2013-02-16 02:52:00,30.6,7.4,30.27,North,0,0.2,0.2,37,0.00,,---,0.00,VWS V14.01,2013-02-16 09:52:00,
2013-02-16 02:57:00,30.2,7.1,30.27,North,0,0.0,0.0,37,0.00,,---,0.00,VWS V14.01,2013-02-16 09:57:00,
2013-02-16 03:02:00,29.9,6.8,30.27,North,0,0.0,0.0,37,0.00,,---,0.00,VWS V14.01,2013-02-16 10:02:00,
2013-02-16 03:07:00,29.9,6.8,30.27,NE,45,2.5,2.5,37,0.00,,---,0.00,VWS V14.01,2013-02-16 10:07:00,
2013-02-16 03:12:00,30.2,7.1,30.27,NE,45,3.4,3.4,37,0.00,,---,0.00,VWS V14.01,2013-02-16 10:12:00,
2013-02-16 03:17:00,30.4,7.3,30.27,NNE,22,1.8,1.8,37,0.00,,---,0.00,VWS V14.01,2013-02-16 10:17:00,
2013-02-16 03:22:00,30.4,7.3,30.27,NNE,22,2.0,2.0,37,0.00,,---,0.00,VWS V14.01,2013-02-16 10:22:00,
2013-02-16 03:27:00,30.4,7.3,30.27,NNE,22,2.2,2.2,37,0.00,,---,0.00,VWS V14.01,2013-02-16 10:27:00,
2013-02-16 03:32:00,30.6,7.4,30.27,NNE,22,4.0,4.0,37,0.00,,---,0.00,VWS V14.01,2013-02-16 10:32:00,
2013-02-16 03:37:00,30.8,7.6,30.27,NNE,22,3.8,3.8,37,0.00,,---,0.00,VWS V14.01,2013-02-16 10:37:00,
2013-02-16 03:42:00,31.0,7.2,30.27,NNE,22,2.9,2.9,36,0.00,,---,0.00,VWS V14.01,2013-02-16 10:42:00,
2013-02-16 03:47:00,31.1,7.9,30.27,North,0,4.7,4.7,37,0.00,,---,0.00,VWS V14.01,2013-02-16 10:47:00,
2013-02-16 03:52:00,31.1,7.9,30.27,NNE,22,2.9,2.9,37,0.00,,---,0.00,VWS V14.01,2013-02-16 10:52:00,
2013-02-16 03:57:00,31.3,8.1,30.27,NNE,22,3.1,3.1,37,0.00,,---,0.00,VWS V14.01,2013-02-16 10:57:00,
2013-02-16 04:02:00,31.3,8.1,30.27,North,0,1.1,1.1,37,0.00,,---,0.00,VWS V14.01,2013-02-16 11:02:00,
2013-02-16 04:07:00,31.3,8.1,30.27,NNE,22,2.2,2.2,37,0.00,,---,0.00,VWS V14.01,2013-02-16 11:07:00,
2013-02-16 04:12:00,31.3,8.1,30.27,NNE,22,2.9,2.9,37,0.00,,---,0.00,VWS V14.01,2013-02-16 11:12:00,
2013-02-16 04:17:00,31.3,8.1,30.27,NNE,22,4.7,4.7,37,0.00,,---,0.00,VWS V14.01,2013-02-16 11:17:00,
2013-02-16 04:22:00,31.5,8.2,30.27,NNE,22,5.6,5.6,37,0.00,,---,0.00,VWS V14.01,2013-02-16 11:22:00,
2013-02-16 04:27:00,31.7,8.4,30.27,North,0,5.4,5.4,37,0.00,,---,0.00,VWS V14.01,2013-02-16 11:27:00,
2013-02-16 04:32:00,31.9,8.0,30.27,NE,45,3.4,3.4,36,0.00,,---,0.00,VWS V14.01,2013-02-16 11:32:00,
2013-02-16 04:37:00,31.9,8.0,30.27,NNE,22,3.1,3.1,36,0.00,,---,0.00,VWS V14.01,2013-02-16 11:37:00,
2013-02-16 04:42:00,31.7,7.8,30.27,NE,45,3.6,3.6,36,0.00,,---,0.00,VWS V14.01,2013-02-16 11:42:00,
2013-02-16 04:47:00,32.0,8.1,30.27,NNE,22,3.4,3.4,36,0.00,,---,0.00,VWS V14.01,2013-02-16 11:47:00,
2013-02-16 04:52:00,32.0,8.1,30.27,NE,45,2.2,2.2,36,0.00,,---,0.00,VWS V14.01,2013-02-16 11:52:00,
2013-02-16 04:57:00,32.0,8.1,30.27,NE,45,4.5,4.5,36,0.00,,---,0.00,VWS V14.01,2013-02-16 11:57:00,
2013-02-16 05:02:00,32.0,8.1,30.27,NNE,22,3.1,3.1,36,0.00,,---,0.00,VWS V14.01,2013-02-16 12:02:00,
2013-02-16 05:07:00,32.0,8.1,30.27,NNE,22,5.6,5.6,36,0.00,,---,0.00,VWS V14.01,2013-02-16 12:07:00,
2013-02-16 05:12:00,32.0,8.1,30.27,NNE,22,2.2,2.2,36,0.00,,---,0.00,VWS V14.01,2013-02-16 12:12:00,
2013-02-16 05:17:00,32.0,8.1,30.27,NNE,22,3.8,5.4,36,0.00,,---,0.00,VWS V14.01,2013-02-16 12:17:00,
2013-02-16 05:22:00,32.2,8.3,30.27,NNE,22,3.8,3.8,36,0.00,,---,0.00,VWS V14.01,2013-02-16 12:22:00,
2013-02-16 05:27:00,32.4,8.4,30.27,NNE,22,3.1,3.1,36,0.00,,---,0.00,VWS V14.01,2013-02-16 12:27:00,
2013-02-16 05:32:00,32.2,8.3,30.27,NE,45,3.6,3.6,36,0.00,,---,0.00,VWS V14.01,2013-02-16 12:32:00,
2013-02-16 05:37:00,32.4,8.4,30.27,NNE,22,3.4,3.4,36,0.00,,---,0.00,VWS V14.01,2013-02-16 12:37:00,
2013-02-16 05:42:00,32.4,8.4,30.27,NNE,22,1.8,1.8,36,0.00,,---,0.00,VWS V14.01,2013-02-16 12:42:00,
2013-02-16 05:47:00,32.0,8.1,30.27,NNE,22,6.3,6.3,36,0.00,,---,0.00,VWS V14.01,2013-02-16 12:47:00,
2013-02-16 05:52:00,32.4,8.4,30.27,North,0,2.2,2.2,36,0.00,,---,0.00,VWS V14.01,2013-02-16 12:52:00,
2013-02-16 05:57:00,32.2,8.3,30.27,North,0,2.7,2.7,36,0.00,,---,0.00,VWS V14.01,2013-02-16 12:57:00,
2013-02-16 06:02:00,32.2,8.3,30.27,NNE,22,3.4,3.4,36,0.00,,---,0.00,VWS V14.01,2013-02-16 13:02:00,
2013-02-16 06:07:00,32.0,8.1,30.27,North,0,2.0,2.0,36,0.00,,---,0.00,VWS V14.01,2013-02-16 13:07:00,
2013-02-16 06:12:00,31.9,8.0,30.27,NNE,22,3.4,3.4,36,0.00,,---,0.00,VWS V14.01,2013-02-16 13:12:00,
2013-02-16 06:17:00,32.2,8.3,30.27,NNE,22,1.8,1.8,36,0.00,,---,0.00,VWS V14.01,2013-02-16 13:17:00,
2013-02-16 06:22:00,32.2,8.3,30.27,North,0,4.0,4.0,36,0.00,,---,0.00,VWS V14.01,2013-02-16 13:22:00,
2013-02-16 06:27:00,32.4,8.4,30.27,NNE,22,3.6,3.6,36,0.00,,---,0.00,VWS V14.01,2013-02-16 13:27:00,
2013-02-16 06:32:00,32.6,8.6,30.27,NNE,22,5.6,5.6,36,0.00,,---,0.00,VWS V14.01,2013-02-16 13:32:00,
2013-02-16 06:37:00,32.8,8.2,30.27,NNE,22,3.4,3.4,35,0.00,,---,0.00,VWS V14.01,2013-02-16 13:37:00,
2013-02-16 06:42:00,32.9,8.3,30.27,North,0,1.6,1.6,35,0.00,,---,0.00,VWS V14.01,2013-02-16 13:42:00,
2013-02-16 06:47:00,32.8,8.2,30.27,North,0,0.7,0.7,35,0.00,,---,0.00,VWS V14.01,2013-02-16 13:47:00,
2013-02-16 06:52:00,32.9,8.3,30.27,NW,315,2.2,2.2,35,0.00,,---,0.00,VWS V14.01,2013-02-16 13:52:00,
2013-02-16 06:57:00,32.8,8.2,30.28,NW,315,1.1,1.1,35,0.00,,---,0.00,VWS V14.01,2013-02-16 13:57:00,
2013-02-16 07:02:00,32.4,7.8,30.28,NNW,338,1.6,1.6,35,0.00,,---,0.00,VWS V14.01,2013-02-16 14:02:00,
2013-02-16 07:07:00,32.2,7.6,30.28,North,0,1.1,1.1,35,0.00,,---,0.00,VWS V14.01,2013-02-16 14:07:00,
2013-02-16 07:12:00,32.8,8.2,30.28,NNW,338,1.8,1.8,35,0.00,,---,0.00,VWS V14.01,2013-02-16 14:12:00,
2013-02-16 07:17:00,32.8,8.2,30.28,West,270,0.9,0.9,35,0.00,,---,0.00,VWS V14.01,2013-02-16 14:17:00,
2013-02-16 07:22:00,32.4,8.4,30.29,SW,225,1.3,1.3,36,0.00,,---,0.00,VWS V14.01,2013-02-16 14:22:00,
2013-02-16 07:27:00,30.8,7.6,30.29,West,270,2.7,2.7,37,0.00,,---,0.00,VWS V14.01,2013-02-16 14:27:00,
2013-02-16 07:32:00,30.6,7.4,30.29,WSW,248,1.6,1.6,37,0.00,,---,0.01,VWS V14.01,2013-02-16 14:32:00,
2013-02-16 07:37:00,31.5,8.8,30.29,NW,315,0.4,0.4,38,0.00,,---,0.00,VWS V14.01,2013-02-16 14:37:00,
2013-02-16 07:42:00,32.6,9.8,30.29,WNW,292,0.4,0.4,38,0.00,,---,0.00,VWS V14.01,2013-02-16 14:42:00,
2013-02-16 07:47:00,33.3,10.4,30.29,NW,315,0.2,0.2,38,0.00,,---,0.00,VWS V14.01,2013-02-16 14:47:00,
2013-02-16 07:52:00,34.6,10.4,30.29,WSW,248,0.7,0.7,36,0.00,,---,0.00,VWS V14.01,2013-02-16 14:52:00,
2013-02-16 07:57:00,34.9,10.7,30.29,West,270,0.0,0.0,36,0.00,,---,0.00,VWS V14.01,2013-02-16 14:57:00,
2013-02-16 08:02:00,35.6,9.4,30.29,SW,225,1.1,1.1,33,0.00,,---,0.00,VWS V14.01,2013-02-16 15:02:00,
2013-02-16 08:07:00,35.5,9.3,30.29,WSW,248,0.2,0.2,33,0.00,,---,0.00,VWS V14.01,2013-02-16 15:07:00,
2013-02-16 08:12:00,35.1,8.9,30.29,WSW,248,1.8,1.8,33,0.00,,---,0.00,VWS V14.01,2013-02-16 15:12:00,
2013-02-16 08:17:00,35.3,9.1,30.30,West,270,1.8,1.8,33,0.00,,---,0.00,VWS V14.01,2013-02-16 15:17:00,
2013-02-16 08:22:00,36.2,10.6,30.30,WNW,292,1.8,1.8,34,0.00,,---,0.00,VWS V14.01,2013-02-16 15:22:00,
2013-02-16 08:27:00,37.6,10.4,30.29,NNW,338,1.1,1.1,32,0.00,,---,0.00,VWS V14.01,2013-02-16 15:27:00,
2013-02-16 08:32:00,38.3,10.3,30.29,NNW,338,1.6,1.6,31,0.00,,---,0.00,VWS V14.01,2013-02-16 15:32:00,
2013-02-16 08:37:00,39.4,10.6,30.30,West,270,2.7,2.7,30,0.00,,---,0.00,VWS V14.01,2013-02-16 15:37:00,
2013-02-16 08:42:00,40.0,11.1,30.29,North,0,0.9,0.9,30,0.00,,---,0.00,VWS V14.01,2013-02-16 15:42:00,
2013-02-16 08:47:00,42.1,12.1,30.29,WSW,248,0.4,0.4,29,0.00,,---,0.00,VWS V14.01,2013-02-16 15:47:00,
2013-02-16 08:52:00,43.4,11.7,30.29,NW,315,2.5,2.5,27,0.00,,---,0.00,VWS V14.01,2013-02-16 15:52:00,
2013-02-16 08:57:00,44.6,11.0,30.29,NW,315,1.3,1.3,25,0.00,,---,0.00,VWS V14.01,2013-02-16 15:57:00,
2013-02-16 09:02:00,44.5,9.0,30.29,NNW,338,5.4,5.4,23,0.00,,---,0.00,VWS V14.01,2013-02-16 16:02:00,
2013-02-16 09:07:00,43.6,9.2,30.29,NE,45,3.4,3.4,24,0.00,,---,0.00,VWS V14.01,2013-02-16 16:07:00,
2013-02-16 09:12:00,43.7,9.3,30.29,NW,315,4.3,4.3,24,0.00,,---,0.00,VWS V14.01,2013-02-16 16:12:00,
2013-02-16 09:17:00,44.3,9.8,30.29,NNE,22,4.9,4.9,24,0.00,,---,0.00,VWS V14.01,2013-02-16 16:17:00,
2013-02-16 09:22:00,45.0,10.4,30.29,NNW,338,3.6,3.6,24,0.00,,---,0.00,VWS V14.01,2013-02-16 16:22:00,
2013-02-16 09:27:00,45.4,10.7,30.29,NW,315,2.7,2.7,24,0.00,,---,0.00,VWS V14.01,2013-02-16 16:27:00,
2013-02-16 09:32:00,45.0,10.4,30.28,North,0,7.2,7.2,24,0.00,,---,0.00,VWS V14.01,2013-02-16 16:32:00,
2013-02-16 09:37:00,44.8,10.2,30.28,NNW,338,5.4,5.4,24,0.00,,---,0.00,VWS V14.01,2013-02-16 16:37:00,
2013-02-16 09:42:00,44.6,10.1,30.28,North,0,1.3,1.3,24,0.00,,---,0.00,VWS V14.01,2013-02-16 16:42:00,
2013-02-16 09:47:00,44.5,10.0,30.28,NNW,338,2.7,2.7,24,0.00,,---,0.00,VWS V14.01,2013-02-16 16:47:00,
2013-02-16 09:52:00,44.3,9.8,30.28,NNE,22,6.3,6.3,24,0.00,,---,0.00,VWS V14.01,2013-02-16 16:52:00,
2013-02-16 09:57:00,44.6,11.0,30.28,NW,315,3.4,3.4,25,0.00,,---,0.00,VWS V14.01,2013-02-16 16:57:00,
2013-02-16 10:02:00,44.5,10.0,30.28,NNW,338,4.0,4.0,24,0.00,,---,0.00,VWS V14.01,2013-02-16 17:02:00,
2013-02-16 10:07:00,44.6,10.1,30.28,WNW,292,4.5,4.5,24,0.00,,---,0.00,VWS V14.01,2013-02-16 17:07:00,
2013-02-16 10:12:00,44.3,9.8,30.28,NW,315,4.0,4.0,24,0.00,,---,0.00,VWS V14.01,2013-02-16 17:12:00,
2013-02-16 10:17:00,44.3,9.8,30.28,West,270,8.3,8.3,24,0.00,,---,0.00,VWS V14.01,2013-02-16 17:17:00,
2013-02-16 10:22:00,44.1,10.5,30.27,WNW,292,4.7,4.7,25,0.00,,---,0.00,VWS V14.01,2013-02-16 17:22:00,
2013-02-16 10:27:00,44.3,10.7,30.28,North,0,3.4,3.4,25,0.00,,---,0.00,VWS V14.01,2013-02-16 17:27:00,
2013-02-16 10:32:00,44.5,10.0,30.27,North,0,3.4,3.4,24,0.00,,---,0.00,VWS V14.01,2013-02-16 17:32:00,
2013-02-16 10:37:00,44.6,10.1,30.27,North,0,6.9,6.9,24,0.00,,---,0.00,VWS V14.01,2013-02-16 17:37:00,
2013-02-16 10:42:00,44.3,9.8,30.26,WNW,292,4.5,4.5,24,0.00,,---,0.00,VWS V14.01,2013-02-16 17:42:00,
2013-02-16 10:47:00,44.1,9.6,30.26,WNW,292,4.3,4.3,24,0.00,,---,0.00,VWS V14.01,2013-02-16 17:47:00,
2013-02-16 10:52:00,44.6,10.1,30.26,NNW,338,5.8,5.8,24,0.00,,---,0.00,VWS V14.01,2013-02-16 17:52:00,
2013-02-16 10:57:00,45.0,10.4,30.26,NNW,338,3.4,3.4,24,0.00,,---,0.00,VWS V14.01,2013-02-16 17:57:00,
2013-02-16 11:02:00,45.5,10.8,30.26,North,0,2.9,2.9,24,0.00,,---,0.00,VWS V14.01,2013-02-16 18:02:00,
2013-02-16 11:07:00,45.7,10.0,30.25,NNW,338,6.5,6.5,23,0.00,,---,0.00,VWS V14.01,2013-02-16 18:07:00,
2013-02-16 11:12:00,45.4,9.8,30.25,NW,315,6.0,6.0,23,0.00,,---,0.00,VWS V14.01,2013-02-16 18:12:00,
2013-02-16 11:17:00,45.5,9.9,30.25,WNW,292,4.7,4.7,23,0.00,,---,0.00,VWS V14.01,2013-02-16 18:17:00,
2013-02-16 11:22:00,45.9,10.2,30.25,WNW,292,5.8,5.8,23,0.00,,---,0.00,VWS V14.01,2013-02-16 18:22:00,
2013-02-16 11:27:00,46.6,10.8,30.25,SSW,202,2.0,2.0,23,0.00,,---,0.00,VWS V14.01,2013-02-16 18:27:00,
2013-02-16 11:32:00,46.4,10.6,30.25,NNW,338,6.9,6.9,23,0.00,,---,0.00,VWS V14.01,2013-02-16 18:32:00,
2013-02-16 11:37:00,46.8,10.0,30.24,NNW,338,2.7,2.7,22,0.00,,---,0.00,VWS V14.01,2013-02-16 18:37:00,
2013-02-16 11:42:00,46.8,10.0,30.24,NW,315,4.0,4.0,22,0.00,,---,0.00,VWS V14.01,2013-02-16 18:42:00,
2013-02-16 11:47:00,46.8,10.0,30.24,NNW,338,4.0,4.0,22,0.00,,---,0.00,VWS V14.01,2013-02-16 18:47:00,
2013-02-16 11:52:00,46.6,9.8,30.23,NW,315,3.4,3.4,22,0.00,,---,0.00,VWS V14.01,2013-02-16 18:52:00,
2013-02-16 11:57:00,46.4,9.6,30.23,NNW,338,3.6,3.6,22,0.00,,---,0.00,VWS V14.01,2013-02-16 18:57:00,
2013-02-16 12:02:00,46.8,10.0,30.22,NNW,338,1.6,1.6,22,0.00,,---,0.00,VWS V14.01,2013-02-16 19:02:00,
2013-02-16 12:07:00,47.2,10.3,30.22,West,270,3.4,3.4,22,0.00,,---,0.00,VWS V14.01,2013-02-16 19:07:00,
2013-02-16 12:12:00,47.3,10.4,30.22,West,270,5.6,5.6,22,0.00,,---,0.00,VWS V14.01,2013-02-16 19:12:00,
2013-02-16 12:16:00,47.3,9.4,30.22,West,270,3.6,3.6,21,0.00,,---,0.00,VWS V14.01,2013-02-16 19:16:00,
2013-02-16 12:21:00,47.9,10.9,30.21,WSW,248,0.4,0.4,22,0.00,,---,0.00,VWS V14.01,2013-02-16 19:21:00,
2013-02-16 12:26:00,47.7,9.7,30.21,West,270,1.8,1.8,21,0.00,,---,0.00,VWS V14.01,2013-02-16 19:26:00,
2013-02-16 12:32:00,47.7,9.7,30.21,WSW,248,6.3,6.3,21,0.00,,---,0.00,VWS V14.01,2013-02-16 19:32:00,
2013-02-16 12:37:00,48.6,10.4,30.21,WSW,248,4.0,4.0,21,0.00,,---,0.00,VWS V14.01,2013-02-16 19:37:00,
2013-02-16 12:42:00,49.0,10.8,30.20,NW,315,3.1,3.1,21,0.00,,---,0.00,VWS V14.01,2013-02-16 19:42:00,
2013-02-16 12:47:00,48.8,9.5,30.20,SW,225,4.3,4.3,20,0.00,,---,0.00,VWS V14.01,2013-02-16 19:47:00,
2013-02-16 12:52:00,48.6,9.4,30.20,West,270,2.7,2.7,20,0.00,,---,0.00,VWS V14.01,2013-02-16 19:52:00,
2013-02-16 12:57:00,49.5,10.1,30.20,WNW,292,4.9,4.9,20,0.00,,---,0.00,VWS V14.01,2013-02-16 19:57:00,
2013-02-16 13:02:00,49.3,9.9,30.20,West,270,1.1,1.1,20,0.00,,---,0.00,VWS V14.01,2013-02-16 20:02:00,
2013-02-16 13:07:00,50.0,10.5,30.19,WNW,292,2.9,2.9,20,0.00,,---,0.00,VWS V14.01,2013-02-16 20:07:00,
2013-02-16 13:12:00,49.3,9.9,30.19,South,180,0.4,0.4,20,0.00,,---,0.00,VWS V14.01,2013-02-16 20:12:00,
2013-02-16 13:17:00,49.3,9.9,30.19,NE,45,0.7,0.7,20,0.00,,---,0.00,VWS V14.01,2013-02-16 20:17:00,
2013-02-16 13:22:00,49.5,10.1,30.18,SW,225,0.9,0.9,20,0.00,,---,0.00,VWS V14.01,2013-02-16 20:22:00,
2013-02-16 13:27:00,50.8,10.0,30.18,NW,315,2.0,2.0,19,0.00,,---,0.00,VWS V14.01,2013-02-16 20:27:00,
2013-02-16 13:32:00,50.8,8.8,30.17,ESE,112,1.8,1.8,18,0.00,,---,0.00,VWS V14.01,2013-02-16 20:32:00,
2013-02-16 13:37:00,50.6,8.7,30.17,SSW,202,3.8,3.8,18,0.00,,---,0.00,VWS V14.01,2013-02-16 20:37:00,
2013-02-16 13:41:00,50.6,8.7,30.17,West,270,2.0,2.0,18,0.00,,---,0.00,VWS V14.01,2013-02-16 20:41:00,
2013-02-16 13:46:00,51.8,8.4,30.17,South,180,2.5,2.5,17,0.00,,---,0.00,VWS V14.01,2013-02-16 20:46:00,
2013-02-16 13:52:00,52.2,8.7,30.17,East,90,1.8,1.8,17,0.00,,---,0.00,VWS V14.01,2013-02-16 20:52:00,
2013-02-16 13:57:00,51.5,8.1,30.16,NNE,22,5.1,5.1,17,0.00,,---,0.00,VWS V14.01,2013-02-16 20:57:00,
2013-02-16 14:02:00,51.5,8.1,30.16,ESE,112,0.4,0.4,17,0.00,,---,0.00,VWS V14.01,2013-02-16 21:02:00,
2013-02-16 14:06:00,52.0,8.6,30.16,South,180,3.4,3.4,17,0.00,,---,0.00,VWS V14.01,2013-02-16 21:06:00,
2013-02-16 14:11:00,51.5,8.1,30.16,SW,225,2.2,2.2,17,0.00,,---,0.00,VWS V14.01,2013-02-16 21:11:00,
2013-02-16 14:16:00,52.0,8.6,30.15,SSW,202,1.1,1.1,17,0.00,,---,0.00,VWS V14.01,2013-02-16 21:16:00,
2013-02-16 14:21:00,52.9,7.9,30.16,SW,225,2.2,2.2,16,0.00,,---,0.00,VWS V14.01,2013-02-16 21:21:00,
2013-02-16 14:26:00,52.7,7.8,30.15,East,90,2.2,2.2,16,0.00,,---,0.00,VWS V14.01,2013-02-16 21:26:00,
2013-02-16 14:31:00,52.4,7.5,30.15,ESE,112,0.9,0.9,16,0.00,,---,0.00,VWS V14.01,2013-02-16 21:31:00,
2013-02-16 14:36:00,53.3,8.3,30.15,ESE,112,1.8,1.8,16,0.00,,---,0.00,VWS V14.01,2013-02-16 21:36:00,
2013-02-16 14:41:00,55.3,9.9,30.14,SSE,158,1.3,1.3,16,0.00,,---,0.00,VWS V14.01,2013-02-16 21:41:00,
2013-02-16 14:46:00,56.2,10.6,30.14,SE,135,0.7,0.7,16,0.00,,---,0.00,VWS V14.01,2013-02-16 21:46:00,
2013-02-16 14:51:00,55.4,10.0,30.14,East,90,3.4,3.4,16,0.00,,---,0.00,VWS V14.01,2013-02-16 21:51:00,
2013-02-16 14:56:00,54.7,9.4,30.14,SSE,158,2.9,2.9,16,0.00,,---,0.00,VWS V14.01,2013-02-16 21:56:00,
2013-02-16 15:01:00,55.1,9.7,30.13,SE,135,1.1,1.1,16,0.00,,---,0.01,VWS V14.01,2013-02-16 22:01:00,
2013-02-16 15:06:00,55.4,10.0,30.13,ESE,112,1.6,1.6,16,0.00,,---,0.00,VWS V14.01,2013-02-16 22:06:00,
2013-02-16 15:11:00,54.7,9.4,30.13,ENE,68,2.9,2.9,16,0.00,,---,0.00,VWS V14.01,2013-02-16 22:11:00,
2013-02-16 15:16:00,55.4,11.3,30.13,NNE,22,0.4,0.4,17,0.00,,---,0.00,VWS V14.01,2013-02-16 22:16:00,
2013-02-16 15:21:00,58.1,13.5,30.12,WSW,248,0.4,0.4,17,0.00,,---,0.00,VWS V14.01,2013-02-16 22:21:00,
2013-02-16 15:26:00,58.3,7.7,30.12,SW,225,1.1,1.1,13,0.00,,---,0.00,VWS V14.01,2013-02-16 22:26:00,
2013-02-16 15:31:00,56.7,9.6,30.12,NW,315,1.1,1.1,15,0.00,,---,0.00,VWS V14.01,2013-02-16 22:31:00,
2013-02-16 15:36:00,58.1,9.2,30.11,NNW,338,2.7,2.7,14,0.00,,---,0.00,VWS V14.01,2013-02-16 22:36:00,
2013-02-16 15:41:00,60.1,9.1,30.11,WNW,292,1.3,1.3,13,0.00,,---,0.00,VWS V14.01,2013-02-16 22:41:00,
2013-02-16 15:46:00,58.9,6.4,30.11,SW,225,3.4,3.4,12,0.00,,---,0.00,VWS V14.01,2013-02-16 22:46:00,
2013-02-16 15:51:00,59.4,11.8,30.11,NW,315,0.0,0.0,15,0.00,,---,0.00,VWS V14.01,2013-02-16 22:51:00,
2013-02-16 15:56:00,60.7,9.6,30.11,NNW,338,1.6,1.6,13,0.00,,---,0.00,VWS V14.01,2013-02-16 22:56:00,
2013-02-16 16:01:00,59.6,6.9,30.11,NW,315,3.8,3.8,12,0.00,,---,0.00,VWS V14.01,2013-02-16 23:01:00,
2013-02-16 16:06:00,59.2,6.6,30.11,West,270,1.8,1.8,12,0.00,,---,0.00,VWS V14.01,2013-02-16 23:06:00,
2013-02-16 16:11:00,58.0,7.4,30.11,NW,315,3.8,3.8,13,0.00,,---,0.00,VWS V14.01,2013-02-16 23:11:00,
2013-02-16 16:16:00,58.5,7.8,30.11,West,270,2.5,2.5,13,0.00,,---,0.00,VWS V14.01,2013-02-16 23:16:00,
2013-02-16 16:21:00,58.5,7.8,30.10,WSW,248,3.4,3.4,13,0.00,,---,0.00,VWS V14.01,2013-02-16 23:21:00,
2013-02-16 16:26:00,58.9,6.4,30.10,West,270,4.7,4.7,12,0.00,,---,0.00,VWS V14.01,2013-02-16 23:26:00,
2013-02-16 16:31:00,58.5,6.1,30.10,WNW,292,5.8,5.8,12,0.00,,---,0.00,VWS V14.01,2013-02-16 23:31:00,
2013-02-16 16:36:00,58.9,6.4,30.10,NW,315,0.9,0.9,12,0.00,,---,0.00,VWS V14.01,2013-02-16 23:36:00,
2013-02-16 16:41:00,58.7,6.2,30.10,NW,315,2.5,3.6,12,0.00,,---,0.00,VWS V14.01,2013-02-16 23:41:00,
2013-02-16 16:46:00,58.5,6.1,30.10,WNW,292,2.9,2.9,12,0.00,,---,0.00,VWS V14.01,2013-02-16 23:46:00,
2013-02-16 16:51:00,58.5,6.1,30.09,West,270,6.9,6.9,12,0.00,,---,0.00,VWS V14.01,2013-02-16 23:51:00,
2013-02-16 16:56:00,58.1,7.5,30.09,NW,315,2.2,2.2,13,0.00,,---,0.00,VWS V14.01,2013-02-16 23:56:00,
2013-02-16 17:01:00,58.3,7.7,30.09,NW,315,2.7,2.7,13,0.00,,---,0.00,VWS V14.01,2013-02-17 00:01:00,
2013-02-16 17:06:00,58.0,5.7,30.09,North,0,1.8,1.8,12,0.00,,---,0.00,VWS V14.01,2013-02-17 00:06:00,
2013-02-16 17:11:00,57.8,5.5,30.09,NNW,338,5.8,5.8,12,0.00,,---,0.00,VWS V14.01,2013-02-17 00:11:00,
2013-02-16 17:16:00,57.6,5.4,30.09,NW,315,2.5,2.5,12,0.00,,---,0.00,VWS V14.01,2013-02-17 00:16:00,
2013-02-16 17:21:00,56.5,4.5,30.09,West,270,2.9,2.9,12,0.00,,---,0.00,VWS V14.01,2013-02-17 00:21:00,
2013-02-16 17:26:00,56.5,4.5,30.09,West,270,2.5,2.5,12,0.00,,---,0.00,VWS V14.01,2013-02-17 00:26:00,
2013-02-16 17:31:00,56.0,2.2,30.09,WNW,292,3.8,3.8,11,0.00,,---,0.00,VWS V14.01,2013-02-17 00:31:00,
2013-02-16 17:36:00,55.3,-0.3,30.09,NW,315,3.8,3.8,10,0.00,,---,0.00,VWS V14.01,2013-02-17 00:36:00,
2013-02-16 17:41:00,54.7,-0.8,30.09,NNW,338,6.3,6.3,10,0.00,,---,0.00,VWS V14.01,2013-02-17 00:41:00,
2013-02-16 17:46:00,54.4,-1.0,30.09,NW,315,4.5,4.5,10,0.00,,---,0.00,VWS V14.01,2013-02-17 00:46:00,
2013-02-16 17:51:00,54.0,0.7,30.09,NW,315,1.8,1.8,11,0.00,,---,0.00,VWS V14.01,2013-02-17 00:51:00,
2013-02-16 17:56:00,53.6,-1.6,30.09,NW,315,8.5,8.5,10,0.00,,---,0.00,VWS V14.01,2013-02-17 00:56:00,
2013-02-16 18:01:00,53.3,0.1,30.09,NW,315,3.8,3.8,11,0.00,,---,0.00,VWS V14.01,2013-02-17 01:01:00,
2013-02-16 18:06:00,52.9,-0.2,30.09,NNW,338,4.0,4.0,11,0.00,,---,0.00,VWS V14.01,2013-02-17 01:06:00,
2013-02-16 18:11:00,52.6,-0.4,30.09,NW,315,5.8,5.8,11,0.00,,---,0.00,VWS V14.01,2013-02-17 01:11:00,
2013-02-16 18:16:00,52.4,-0.6,30.09,NW,315,3.8,3.8,11,0.00,,---,0.00,VWS V14.01,2013-02-17 01:16:00,
2013-02-16 18:21:00,52.2,1.1,30.09,NNW,338,3.6,3.6,12,0.00,,---,0.00,VWS V14.01,2013-02-17 01:21:00,
2013-02-16 18:26:00,51.7,0.7,30.09,NW,315,3.1,3.1,12,0.00,,---,0.00,VWS V14.01,2013-02-17 01:26:00,
2013-02-16 18:31:00,51.3,0.4,30.09,NW,315,4.0,4.0,12,0.00,,---,0.00,VWS V14.01,2013-02-17 01:31:00,
2013-02-16 18:36:00,51.1,0.3,30.10,WNW,292,4.5,4.5,12,0.00,,---,0.00,VWS V14.01,2013-02-17 01:36:00,
2013-02-16 18:41:00,50.8,0.0,30.10,NW,315,2.5,2.5,12,0.00,,---,0.00,VWS V14.01,2013-02-17 01:41:00,
2013-02-16 18:46:00,50.8,0.0,30.10,NNW,338,3.1,3.1,12,0.00,,---,0.00,VWS V14.01,2013-02-17 01:46:00,
2013-02-16 18:51:00,50.8,0.0,30.10,NW,315,4.7,4.7,12,0.00,,---,0.00,VWS V14.01,2013-02-17 01:51:00,
2013-02-16 18:56:00,50.4,-0.3,30.10,North,0,3.4,3.4,12,0.00,,---,0.00,VWS V14.01,2013-02-17 01:56:00,
2013-02-16 19:01:00,50.2,-0.4,30.10,NNE,22,2.7,2.7,12,0.00,,---,0.00,VWS V14.01,2013-02-17 02:01:00,
2013-02-16 19:06:00,49.9,-0.7,30.10,NNW,338,3.6,3.6,12,0.00,,---,0.00,VWS V14.01,2013-02-17 02:06:00,
2013-02-16 19:11:00,49.3,0.6,30.10,North,0,3.4,3.4,13,0.00,,---,0.00,VWS V14.01,2013-02-17 02:11:00,
2013-02-16 19:16:00,48.8,1.7,30.10,NNW,338,2.0,2.0,14,0.00,,---,0.00,VWS V14.01,2013-02-17 02:16:00,
2013-02-16 19:21:00,48.4,1.4,30.10,North,0,3.1,3.1,14,0.00,,---,0.00,VWS V14.01,2013-02-17 02:21:00,
2013-02-16 19:26:00,48.1,1.2,30.09,North,0,3.4,3.4,14,0.00,,---,0.00,VWS V14.01,2013-02-17 02:26:00,
2013-02-16 19:31:00,47.3,2.0,30.09,NNE,22,2.0,2.0,15,0.00,,---,0.00,VWS V14.01,2013-02-17 02:31:00,
2013-02-16 19:36:00,46.8,1.6,30.09,North,0,3.8,3.8,15,0.00,,---,0.00,VWS V14.01,2013-02-17 02:36:00,
2013-02-16 19:41:00,46.3,1.2,30.09,North,0,3.6,3.6,15,0.00,,---,0.00,VWS V14.01,2013-02-17 02:41:00,
2013-02-16 19:46:00,46.3,1.2,30.09,North,0,3.4,3.4,15,0.00,,---,0.00,VWS V14.01,2013-02-17 02:46:00,
2013-02-16 19:51:00,46.4,1.3,30.09,North,0,2.5,2.5,15,0.00,,---,0.00,VWS V14.01,2013-02-17 02:51:00,
2013-02-16 19:56:00,46.6,1.4,30.09,NE,45,2.5,2.5,15,0.00,,---,0.00,VWS V14.01,2013-02-17 02:56:00,
2013-02-16 20:01:00,46.6,1.4,30.09,NNE,22,4.5,4.5,15,0.00,,---,0.00,VWS V14.01,2013-02-17 03:01:00,
2013-02-16 20:06:00,47.0,1.8,30.09,North,0,3.4,3.4,15,0.00,,---,0.00,VWS V14.01,2013-02-17 03:06:00,
2013-02-16 20:11:00,47.2,1.9,30.09,North,0,4.0,4.0,15,0.00,,---,0.00,VWS V14.01,2013-02-17 03:11:00,
2013-02-16 20:16:00,47.3,2.0,30.09,North,0,3.4,3.4,15,0.00,,---,0.00,VWS V14.01,2013-02-17 03:16:00,
2013-02-16 20:21:00,47.3,2.0,30.09,NNE,22,4.3,4.3,15,0.00,,---,0.00,VWS V14.01,2013-02-17 03:21:00,
2013-02-16 20:26:00,47.3,2.0,30.09,NNE,22,5.1,5.1,15,0.00,,---,0.00,VWS V14.01,2013-02-17 03:26:00,
2013-02-16 20:31:00,47.2,1.9,30.09,NNE,22,6.9,7.2,15,0.00,,---,0.00,VWS V14.01,2013-02-17 03:31:00,
2013-02-16 20:36:00,47.0,1.8,30.09,North,0,1.3,1.3,15,0.00,,---,0.00,VWS V14.01,2013-02-17 03:36:00,
2013-02-16 20:41:00,46.8,1.6,30.09,NNE,22,4.5,4.5,15,0.00,,---,0.00,VWS V14.01,2013-02-17 03:41:00,
2013-02-16 20:46:00,46.8,3.0,30.09,North,0,3.6,3.6,16,0.00,,---,0.00,VWS V14.01,2013-02-17 03:46:00,
2013-02-16 20:51:00,46.8,3.0,30.09,NNE,22,1.6,1.6,16,0.00,,---,0.00,VWS V14.01,2013-02-17 03:51:00,
2013-02-16 20:56:00,46.4,1.3,30.09,NNE,22,4.0,4.0,15,0.00,,---,0.00,VWS V14.01,2013-02-17 03:56:00,
2013-02-16 21:01:00,46.4,1.3,30.09,North,0,2.2,2.2,15,0.00,,---,0.00,VWS V14.01,2013-02-17 04:01:00,
2013-02-16 21:06:00,46.1,2.4,30.09,North,0,1.1,1.1,16,0.00,,---,0.00,VWS V14.01,2013-02-17 04:06:00,
2013-02-16 21:11:00,45.5,1.9,30.09,North,0,5.4,5.4,16,0.00,,---,0.00,VWS V14.01,2013-02-17 04:11:00,
2013-02-16 21:16:00,45.2,1.7,30.09,NNE,22,1.8,1.8,16,0.00,,---,0.00,VWS V14.01,2013-02-17 04:16:00,
2013-02-16 21:21:00,45.0,2.8,30.09,North,0,4.7,4.7,17,0.00,,---,0.00,VWS V14.01,2013-02-17 04:21:00,
2013-02-16 21:26:00,45.0,2.8,30.09,North,0,3.4,3.4,17,0.00,,---,0.00,VWS V14.01,2013-02-17 04:26:00,
2013-02-16 21:31:00,45.2,3.0,30.09,NNE,22,4.0,4.0,17,0.00,,---,0.00,VWS V14.01,2013-02-17 04:31:00,
2013-02-16 21:36:00,45.2,3.0,30.09,North,0,0.4,0.4,17,0.00,,---,0.00,VWS V14.01,2013-02-17 04:36:00,
2013-02-16 21:41:00,45.0,2.8,30.09,NNE,22,2.0,2.0,17,0.00,,---,0.00,VWS V14.01,2013-02-17 04:41:00,
2013-02-16 21:46:00,45.0,2.8,30.09,NNW,338,1.8,1.8,17,0.00,,---,0.00,VWS V14.01,2013-02-17 04:46:00,
2013-02-16 21:51:00,45.0,2.8,30.09,NNE,22,1.1,1.1,17,0.00,,---,0.00,VWS V14.01,2013-02-17 04:51:00,
2013-02-16 21:56:00,44.6,2.5,30.08,NNE,22,1.1,1.1,17,0.00,,---,0.00,VWS V14.01,2013-02-17 04:56:00,
2013-02-16 22:00:00,44.3,2.2,30.08,NNE,22,0.9,0.9,17,0.00,,---,0.00,VWS V14.01,2013-02-17 05:00:00,
2013-02-16 22:05:00,44.1,3.3,30.08,NNW,338,2.0,2.9,18,0.00,,---,0.00,VWS V14.01,2013-02-17 05:05:00,
2013-02-16 22:10:00,44.3,3.5,30.08,North,0,1.3,1.3,18,0.00,,---,0.00,VWS V14.01,2013-02-17 05:10:00,
2013-02-16 22:15:00,43.6,2.9,30.08,NE,45,0.0,0.0,18,0.00,,---,0.00,VWS V14.01,2013-02-17 05:15:00,
2013-02-16 22:20:00,42.3,1.8,30.08,NE,45,0.0,0.0,18,0.00,,---,0.00,VWS V14.01,2013-02-17 05:20:00,
2013-02-16 22:25:00,41.2,0.9,30.07,NE,45,0.0,0.0,18,0.00,,---,0.00,VWS V14.01,2013-02-17 05:25:00,
2013-02-16 22:30:00,40.7,2.8,30.08,South,180,0.2,0.2,20,0.00,,---,0.00,VWS V14.01,2013-02-17 05:30:00,
2013-02-16 22:35:00,40.7,2.8,30.07,SW,225,0.0,0.0,20,0.00,,---,0.00,VWS V14.01,2013-02-17 05:35:00,
2013-02-16 22:40:00,40.1,2.3,30.07,SW,225,0.2,0.2,20,0.00,,---,0.00,VWS V14.01,2013-02-17 05:40:00,
2013-02-16 22:45:00,39.4,1.7,30.07,SW,225,0.4,0.4,20,0.00,,---,0.00,VWS V14.01,2013-02-17 05:45:00,
2013-02-16 22:50:00,38.7,1.1,30.07,WSW,248,0.0,0.0,20,0.00,,---,0.00,VWS V14.01,2013-02-17 05:50:00,
2013-02-16 22:55:00,37.8,1.4,30.07,WSW,248,0.2,0.2,21,0.00,,---,0.00,VWS V14.01,2013-02-17 05:55:00,
2013-02-16 23:00:00,36.9,0.6,30.06,WNW,292,0.2,0.2,21,0.00,,---,0.00,VWS V14.01,2013-02-17 06:00:00,
2013-02-16 23:05:00,36.4,1.2,30.06,North,0,0.0,0.0,22,0.00,,---,0.00,VWS V14.01,2013-02-17 06:05:00,
2013-02-16 23:10:00,35.6,0.5,30.06,North,0,0.0,0.0,22,0.00,,---,0.00,VWS V14.01,2013-02-17 06:10:00,
2013-02-16 23:15:00,35.5,1.4,30.06,SW,225,0.0,0.0,23,0.00,,---,0.00,VWS V14.01,2013-02-17 06:15:00,
2013-02-16 23:20:00,35.6,2.4,30.06,SW,225,0.2,0.2,24,0.00,,---,0.00,VWS V14.01,2013-02-17 06:20:00,
2013-02-16 23:25:00,35.3,2.1,30.06,SSE,158,0.2,0.2,24,0.00,,---,0.00,VWS V14.01,2013-02-17 06:25:00,
2013-02-16 23:30:00,34.9,1.8,30.06,SSE,158,0.0,0.0,24,0.00,,---,0.00,VWS V14.01,2013-02-17 06:30:00,
2013-02-16 23:35:00,34.7,0.7,30.06,SSE,158,0.0,0.0,23,0.00,,---,0.00,VWS V14.01,2013-02-17 06:35:00,
2013-02-16 23:40:00,34.0,0.1,30.06,SSE,158,0.0,0.0,23,0.00,,---,0.00,VWS V14.01,2013-02-17 06:40:00,
2013-02-16 23:45:00,33.5,0.6,30.06,South,180,1.1,1.1,24,0.00,,---,0.00,VWS V14.01,2013-02-17 06:45:00,
2013-02-16 23:50:00,34.0,1.0,30.06,SSE,158,0.9,0.9,24,0.00,,---,0.00,VWS V14.01,2013-02-17 06:50:00,
2013-02-16 23:55:00,34.0,1.0,30.06,NE,45,0.0,0.0,24,0.00,,---,0.00,VWS V14.01,2013-02-17 06:55:00,